Flight Track Log - Related Links

Times and Time Zones

All times are in EDT time to prevent confusion due to time zone crossing. See the CHQ5098 flight status page for this flight to view local times or setup timezone preferences in your user account.

Time Position Orientation Groundspeed Altitude Reporting Facility
EDT Latitude Longitude Course Direction KTS MPH feet Rate Location/Type
Sat 08:49:26 PM 41.9667 -87.9500 346° North 177 204 1,900  Level Chicago TRACON
Sat 08:50:26 PM 41.9667 -88.0167 270° West 205 236 4,100 2,421 Climbing Chicago TRACON
Sat 08:51:00 PM 42.3213 -88.0095 350° North  Level FlightAware Approximate
Sat 08:51:20 PM 42.0167 -88.0667 323° Northwest 234 269 6,500  Level Chicago TRACON
Sat 08:52:00 PM 42.4383 -88.0500 North  Level FlightAware Approximate
Sat 08:53:00 PM 42.5568 -88.0864 346° North  Level FlightAware Approximate
Sat 08:53:21 PM 42.1453 -88.0508 North 253 291 10,500  Level Chicago Center
Sat 08:54:00 PM 42.6748 -88.1276 346° North  Level FlightAware Approximate
Sat 08:54:22 PM 42.2264 -88.0428 North 288 331 12,000  Level Chicago Center
Sat 08:55:24 PM 42.3153 -88.0492 357° North 317 365 13,300 1,415 Climbing Chicago Center
Sat 08:56:25 PM 42.4211 -88.0514 359° North 343 395 14,900 829 Climbing Chicago Center
Sat 08:57:27 PM 42.5231 -88.0556 358° North 363 418 15,000 48 Climbing Chicago Center
Sat 08:58:29 PM 42.6258 -88.0592 359° North 368 423 15,000  Level Chicago Center
Sat 08:59:30 PM 42.7222 -88.0631 358° North 349 402 15,000  Level Chicago Center
Sat 09:00:32 PM 42.8183 -88.0667 358° North 346 398 15,000  Level Chicago Center
Sat 09:01:33 PM 42.9128 -88.0711 358° North 342 394 15,000 -439 Level Chicago Center
Sat 09:02:35 PM 43.0250 -88.0742 359° North 344 396 14,100 -532 Descending Chicago Center
Sat 09:03:37 PM 43.1208 -88.0778 358° North 344 396 13,900 -98 Descending Chicago Center
Sat 09:04:38 PM 43.2158 -88.0822 358° North 343 395 13,900  Level Chicago Center
Sat 09:05:40 PM 43.3128 -88.0850 359° North 348 400 13,900 48 Level Chicago Center
Sat 09:06:42 PM 43.4075 -88.0881 359° North 344 396 14,000 -439 Climbing Chicago Center
Sat 09:07:43 PM 43.4947 -88.0922 358° North 321 369 13,000 -1,268 Descending Chicago Center
Sat 09:08:45 PM 43.5892 -88.0956 359° North 296 341 11,400 -1,415 Descending Chicago Center
Sat 09:09:46 PM 43.6708 -88.0992 358° North 296 341 10,100 -683 Descending Chicago Center
Sat 09:10:48 PM 43.7500 -88.0931 North 288 331 10,000 -49 Descending Chicago Center
Sat 09:11:49 PM 43.8319 -88.0708 11° North 298 343 10,000 -244 Level Chicago Center
Sat 09:12:51 PM 43.9114 -88.0469 12° North 293 337 9,500 -933 Descending Chicago Center
Sat 09:13:19 PM 43.9500 -88.0361 11° North 290 334 8,600 -1,820 Descending Minneapolis Center
Sat 09:14:20 PM 44.0281 -88.0175 10° North 285 328 6,800 -1,561 Descending Minneapolis Center
Sat 09:15:22 PM 44.1006 -88.0011 North 272 313 5,400 -1,355 Descending Minneapolis Center
Sat 09:16:24 PM 44.1828 -87.9800 10° North 262 302 4,000 -878 Descending Minneapolis Center
Sat 09:17:25 PM 44.2444 -87.9842 357° North 230 265 3,600 -488 Descending Minneapolis Center
Sat 09:18:27 PM 44.3056 -87.9903 356° North 221 254 3,000 -293 Descending Minneapolis Center
Sat 09:19:28 PM 44.3686 -87.9950 357° North 223 257 3,000  Level Minneapolis Center
Sat 09:20:30 PM 44.4314 -87.9961 359° North 225 259 3,000  Level Minneapolis Center

Login

Don't have an account? Register now (free) for customized features, flight alerts, and more!